Wallkill, New York
Current Conditions -  °F | °C
As of 5:45 PM on Tuesday 27 Jan 2015 (Local Time) from KSWF Reporting Station
Overcast Overcast  
Wind Chill: -14°   Ceiling: 7000
Heat Index: -7°   Visibility: 10mi
Dew Point: -10°   Wind: 12mph
Humidity: 80%   Direction: 60°ENE
Pressure: 29.71"   Gusts: NA
Location:  41.61°N, 74.16°W
Report Text: KSWF 272245Z 06010KT 10SM OVC070 M07/M10 A2971
Loading
Personal Weather Stations






























Interactive Weather Map New forecast layout! Learn more

10-Day Weather Forecast

Advertisements
Track Severe Weather on mobile